createdAt,value
2017-06-05T00:00:48.827Z,23.30
2017-06-05T00:03:14.891Z,23.30
2017-06-05T00:05:40.973Z,23.30
2017-06-05T00:08:07.022Z,23.30
2017-06-05T00:10:33.066Z,23.30
2017-06-05T00:12:59.127Z,23.30
2017-06-05T00:15:25.935Z,23.30
2017-06-05T00:17:52.029Z,23.30
2017-06-05T00:20:18.089Z,23.30
2017-06-05T00:22:44.139Z,23.30
2017-06-05T00:25:10.234Z,23.20
2017-06-05T00:27:36.310Z,23.20
2017-06-05T00:30:02.366Z,23.20
2017-06-05T00:32:28.437Z,23.20
2017-06-05T00:34:54.503Z,23.20
2017-06-05T00:37:20.577Z,23.20
2017-06-05T00:39:46.675Z,23.20
2017-06-05T00:42:12.724Z,23.10
2017-06-05T00:44:38.779Z,23.10
2017-06-05T00:47:04.858Z,23.10
2017-06-05T00:49:30.902Z,23.10
2017-06-05T00:51:56.956Z,23.10
2017-06-05T00:54:23.764Z,23.10
2017-06-05T00:56:49.817Z,23.10
2017-06-05T00:59:15.902Z,23.10
2017-06-05T01:01:41.951Z,23.10
2017-06-05T01:04:08.042Z,23.10
2017-06-05T01:06:34.127Z,23.10
2017-06-05T01:09:00.191Z,23.00
2017-06-05T01:11:26.265Z,23.00
2017-06-05T01:13:52.333Z,23.00
2017-06-05T01:37:50.339Z,22.90
2017-06-05T01:40:16.453Z,23.00
2017-06-05T01:42:42.570Z,22.90
2017-06-05T01:45:40.111Z,22.90
2017-06-05T01:48:37.578Z,22.90
2017-06-05T01:51:34.969Z,22.90
2017-06-05T01:54:01.042Z,22.90
2017-06-05T01:56:27.109Z,22.90
2017-06-05T01:58:53.191Z,22.90
2017-06-05T02:01:19.267Z,22.90
2017-06-05T02:03:45.346Z,22.90
2017-06-05T02:06:11.411Z,22.90
2017-06-05T02:08:37.503Z,22.90
2017-06-05T02:11:03.619Z,22.90
2017-06-05T02:13:29.719Z,22.80
2017-06-05T02:15:55.804Z,22.90
2017-06-05T02:18:21.880Z,22.80
2017-06-05T02:20:47.959Z,22.80
2017-06-05T02:23:14.075Z,22.90
2017-06-05T02:25:40.155Z,22.80
2017-06-05T02:28:06.249Z,22.80
2017-06-05T02:30:32.339Z,22.80
2017-06-05T02:32:58.433Z,22.70
2017-06-05T02:35:24.515Z,22.70
2017-06-05T02:37:50.583Z,22.70
2017-06-05T02:40:16.695Z,22.70
2017-06-05T02:42:42.818Z,22.70
2017-06-05T02:45:08.898Z,22.70
2017-06-05T02:47:34.988Z,22.70
2017-06-05T02:50:01.071Z,22.70
2017-06-05T02:52:27.155Z,22.80
2017-06-05T02:54:53.239Z,22.70
2017-06-05T02:57:19.347Z,22.70
2017-06-05T02:59:45.419Z,22.80
2017-06-05T03:02:11.503Z,22.70
2017-06-05T03:04:37.582Z,22.70
2017-06-05T03:07:03.655Z,22.70
2017-06-05T03:09:29.735Z,22.70
2017-06-05T03:11:56.560Z,22.70
2017-06-05T03:14:22.679Z,22.70
2017-06-05T03:16:48.751Z,22.70
2017-06-05T03:19:14.836Z,22.70
2017-06-05T03:21:40.942Z,22.70
2017-06-05T03:24:07.022Z,22.60
2017-06-05T03:26:33.111Z,22.60
2017-06-05T03:28:59.198Z,22.60
2017-06-05T03:31:25.292Z,22.60
2017-06-05T03:33:51.354Z,22.60
2017-06-05T03:36:17.427Z,22.60
2017-06-05T03:38:43.503Z,22.60
2017-06-05T03:41:09.570Z,22.60
2017-06-05T03:43:35.654Z,22.60
2017-06-05T03:46:01.743Z,22.60
2017-06-05T03:48:27.822Z,22.60
2017-06-05T03:50:53.896Z,22.60
2017-06-05T03:53:19.967Z,22.60
2017-06-05T03:55:46.035Z,22.60
2017-06-05T03:58:12.118Z,22.60
2017-06-05T04:00:38.203Z,22.50
2017-06-05T04:03:04.270Z,22.50
2017-06-05T04:05:30.342Z,22.50
2017-06-05T04:07:56.440Z,22.50
2017-06-05T04:10:22.522Z,22.50
2017-06-05T04:12:48.596Z,22.50
2017-06-05T04:15:14.667Z,22.60
2017-06-05T04:17:40.831Z,22.60
2017-06-05T04:20:06.911Z,22.50
2017-06-05T04:22:33.003Z,22.50
2017-06-05T04:24:59.072Z,22.50
2017-06-05T04:27:25.143Z,22.50
2017-06-05T04:29:51.218Z,22.50
2017-06-05T04:32:17.298Z,22.50
2017-06-05T04:34:43.478Z,22.50
2017-06-05T04:37:09.586Z,22.50
2017-06-05T04:39:35.671Z,22.50
2017-06-05T04:42:01.742Z,22.50
2017-06-05T04:44:27.838Z,22.50
2017-06-05T04:46:53.899Z,22.50
2017-06-05T04:49:19.979Z,22.50
2017-06-05T04:51:46.056Z,22.50
2017-06-05T04:54:12.131Z,22.50
2017-06-05T04:56:38.208Z,22.50
2017-06-05T04:59:04.278Z,22.50
2017-06-05T05:01:30.371Z,22.50
2017-06-05T05:03:56.459Z,22.50
2017-06-05T05:06:22.554Z,22.50
2017-06-05T05:08:48.638Z,22.50
2017-06-05T05:11:14.706Z,22.50
2017-06-05T05:13:40.801Z,22.50
2017-06-05T05:16:06.884Z,22.50
2017-06-05T05:18:32.968Z,22.50
2017-06-05T05:20:59.050Z,22.40
2017-06-05T05:23:25.127Z,22.40
2017-06-05T05:25:51.193Z,22.40
2017-06-05T05:28:17.299Z,22.50
2017-06-05T05:30:43.391Z,22.50
2017-06-05T05:33:09.497Z,22.50
2017-06-05T05:35:35.555Z,22.50
2017-06-05T05:38:02.380Z,22.50
2017-06-05T05:40:28.480Z,22.50
2017-06-05T05:42:54.555Z,22.50
2017-06-05T05:45:21.375Z,22.50
2017-06-05T05:47:47.474Z,22.50
2017-06-05T05:50:13.563Z,22.50
2017-06-05T05:52:39.642Z,22.50
2017-06-05T05:55:05.721Z,22.50
2017-06-05T05:57:31.817Z,22.50
2017-06-05T05:59:57.897Z,22.50
2017-06-05T06:02:23.969Z,22.50
2017-06-05T06:04:50.050Z,22.50
2017-06-05T06:07:16.119Z,22.50
2017-06-05T06:09:42.229Z,22.50
2017-06-05T06:12:08.324Z,22.50
2017-06-05T06:14:34.414Z,22.60
2017-06-05T06:17:00.479Z,22.50
2017-06-05T06:19:26.534Z,22.50
2017-06-05T06:21:52.615Z,22.60
2017-06-05T06:24:18.698Z,22.50
2017-06-05T06:26:44.762Z,22.60
2017-06-05T06:29:10.903Z,22.50
2017-06-05T06:31:36.982Z,22.40
2017-06-05T06:34:03.056Z,22.50
2017-06-05T06:36:29.122Z,22.50
2017-06-05T06:38:55.216Z,22.50
2017-06-05T06:41:21.289Z,22.50
2017-06-05T06:43:47.365Z,22.60
2017-06-05T06:46:13.450Z,22.60
2017-06-05T06:48:39.515Z,22.60
2017-06-05T06:51:05.579Z,22.60
2017-06-05T06:53:31.653Z,22.60
2017-06-05T06:55:57.724Z,22.60
2017-06-05T06:58:23.786Z,22.60
2017-06-05T07:00:49.863Z,22.60
2017-06-05T07:03:15.927Z,22.60
2017-06-05T07:05:42.023Z,22.60
2017-06-05T07:08:08.155Z,22.60
2017-06-05T07:10:34.234Z,22.60
2017-06-05T07:13:00.365Z,22.60
2017-06-05T07:15:26.458Z,22.60
2017-06-05T07:17:52.542Z,22.60
2017-06-05T07:20:18.622Z,22.60
2017-06-05T07:22:44.709Z,22.60
2017-06-05T07:25:10.815Z,22.60
2017-06-05T07:27:36.895Z,22.60
2017-06-05T07:30:02.987Z,22.60
2017-06-05T07:32:29.063Z,22.60
2017-06-05T07:34:55.131Z,22.70
2017-06-05T07:37:21.214Z,22.60
2017-06-05T07:39:47.282Z,22.70
2017-06-05T07:44:49.014Z,22.70
2017-06-05T07:47:15.083Z,22.70
2017-06-05T07:49:41.149Z,22.60
2017-06-05T07:52:07.250Z,22.70
2017-06-05T07:54:33.332Z,22.70
2017-06-05T07:56:59.398Z,22.70
2017-06-05T07:59:25.483Z,22.70
2017-06-05T08:01:51.576Z,22.70
2017-06-05T08:04:17.650Z,22.70
2017-06-05T08:06:43.781Z,22.70
2017-06-05T08:09:09.930Z,22.70
2017-06-05T08:11:36.012Z,22.70
2017-06-05T08:14:02.090Z,22.70
2017-06-05T08:16:28.154Z,22.70
2017-06-05T08:18:54.226Z,22.70
2017-06-05T08:21:20.294Z,22.80
2017-06-05T08:23:46.380Z,22.70
2017-06-05T08:26:12.490Z,22.80
2017-06-05T08:28:38.579Z,22.80
2017-06-05T08:31:04.696Z,22.80
2017-06-05T08:33:30.767Z,22.80
2017-06-05T08:35:56.830Z,22.80
2017-06-05T08:38:22.938Z,22.80
2017-06-05T08:40:49.019Z,22.80
2017-06-05T08:43:15.094Z,22.80
2017-06-05T08:45:41.202Z,22.80
2017-06-05T08:48:07.304Z,22.80
2017-06-05T08:50:33.386Z,22.80
2017-06-05T08:52:59.454Z,22.90
2017-06-05T08:55:25.535Z,22.90
2017-06-05T08:57:51.603Z,22.90
2017-06-05T09:00:17.673Z,22.90
2017-06-05T09:02:43.757Z,22.90
2017-06-05T09:05:09.847Z,22.90
2017-06-05T09:07:35.930Z,22.90
2017-06-05T09:10:02.071Z,22.90
2017-06-05T09:12:28.151Z,22.90
2017-06-05T09:14:54.236Z,22.90
2017-06-05T09:17:20.315Z,22.90
2017-06-05T09:19:46.407Z,22.90
2017-06-05T09:22:13.362Z,22.90
2017-06-05T09:24:39.463Z,22.90
2017-06-05T09:27:05.604Z,22.90
2017-06-05T09:29:31.690Z,23.00
2017-06-05T09:31:57.765Z,22.90
2017-06-05T09:34:23.830Z,23.00
2017-06-05T09:36:49.902Z,23.00
2017-06-05T09:39:15.977Z,23.00
2017-06-05T09:41:42.064Z,23.00
2017-06-05T09:44:08.130Z,23.00
2017-06-05T09:46:34.209Z,23.00
2017-06-05T09:49:00.338Z,23.00
2017-06-05T09:51:26.406Z,23.00
2017-06-05T09:53:52.492Z,23.00
2017-06-05T09:56:18.575Z,23.00
2017-06-05T09:58:44.685Z,23.00
2017-06-05T10:01:10.810Z,23.00
2017-06-05T10:03:36.874Z,23.00
2017-06-05T10:06:02.960Z,23.00
2017-06-05T10:08:29.049Z,23.00
2017-06-05T10:10:55.130Z,23.00
2017-06-05T10:13:21.205Z,23.00
2017-06-05T10:15:47.279Z,23.00
2017-06-05T10:18:13.374Z,23.00
2017-06-05T10:20:39.470Z,23.00
2017-06-05T10:23:05.559Z,23.00
2017-06-05T10:25:31.634Z,23.00
2017-06-05T10:27:57.720Z,23.00
2017-06-05T10:30:23.787Z,23.00
2017-06-05T10:32:49.849Z,23.00
2017-06-05T10:35:15.922Z,23.00
2017-06-05T10:37:41.991Z,23.10
2017-06-05T10:40:08.055Z,23.10
2017-06-05T10:42:34.140Z,23.10
2017-06-05T10:45:00.235Z,23.10
2017-06-05T10:47:26.314Z,23.10
2017-06-05T10:49:52.418Z,23.10
2017-06-05T10:52:18.479Z,23.10
2017-06-05T10:54:44.564Z,23.10
2017-06-05T10:57:10.655Z,23.10
2017-06-05T10:59:36.729Z,23.10
2017-06-05T11:02:02.807Z,23.10
2017-06-05T11:04:28.906Z,23.10
2017-06-05T11:06:55.016Z,23.10
2017-06-05T11:09:21.094Z,23.10
2017-06-05T11:11:47.177Z,23.20
2017-06-05T11:14:13.239Z,23.20
2017-06-05T11:16:40.057Z,23.20
2017-06-05T11:19:06.145Z,23.20
2017-06-05T11:21:32.210Z,23.20
2017-06-05T11:23:58.289Z,23.20
2017-06-05T11:26:24.358Z,23.20
2017-06-05T11:28:50.442Z,23.20
2017-06-05T11:31:16.507Z,23.20
2017-06-05T11:33:42.637Z,23.20
2017-06-05T11:36:08.720Z,23.20
2017-06-05T11:38:34.846Z,23.20
2017-06-05T11:41:00.939Z,23.20
2017-06-05T11:43:27.022Z,23.20
2017-06-05T11:45:53.106Z,23.20
2017-06-05T11:48:19.193Z,23.20
2017-06-05T11:50:45.274Z,23.20
2017-06-05T11:53:11.352Z,23.20
2017-06-05T11:55:37.431Z,23.20
2017-06-05T11:58:03.510Z,23.20
2017-06-05T12:00:29.580Z,23.20
2017-06-05T12:02:55.656Z,23.20
2017-06-05T12:05:21.732Z,23.20
2017-06-05T12:07:47.838Z,23.20
2017-06-05T12:10:14.651Z,23.20
2017-06-05T12:12:40.754Z,23.20
2017-06-05T12:15:06.854Z,23.20
2017-06-05T12:17:32.927Z,23.20
2017-06-05T12:19:59.014Z,23.20
2017-06-05T12:22:25.087Z,23.20
2017-06-05T12:24:51.150Z,23.20
2017-06-05T12:27:17.967Z,23.20
2017-06-05T12:29:44.038Z,23.10
2017-06-05T12:32:10.103Z,23.20
2017-06-05T12:34:36.189Z,23.10
2017-06-05T12:37:02.274Z,23.10
2017-06-05T12:39:28.353Z,23.10
2017-06-05T12:41:54.418Z,23.10
2017-06-05T12:44:20.486Z,23.10
2017-06-05T12:46:46.548Z,23.10
2017-06-05T12:49:12.627Z,23.10
2017-06-05T12:51:38.702Z,23.10
2017-06-05T12:54:04.786Z,23.10
2017-06-05T12:56:30.855Z,23.10
2017-06-05T12:58:56.954Z,23.10
2017-06-05T13:01:23.089Z,23.10
2017-06-05T13:03:49.162Z,23.10
2017-06-05T13:06:15.232Z,23.10
2017-06-05T13:08:41.297Z,23.10
2017-06-05T13:11:07.386Z,23.10
2017-06-05T13:13:33.454Z,23.00
2017-06-05T13:15:59.553Z,23.10
2017-06-05T13:18:25.634Z,23.00
2017-06-05T13:20:51.711Z,23.00
2017-06-05T13:23:17.778Z,23.00
2017-06-05T13:25:43.858Z,23.00
2017-06-05T13:28:09.922Z,23.00
2017-06-05T13:30:36.029Z,23.00
2017-06-05T13:33:02.107Z,23.00
2017-06-05T13:35:28.188Z,23.00
2017-06-05T13:37:54.283Z,23.00
2017-06-05T13:40:20.370Z,23.00
2017-06-05T13:42:46.481Z,23.00
2017-06-05T13:45:12.586Z,23.00
2017-06-05T13:47:38.650Z,23.00
2017-06-05T13:50:04.731Z,23.00
2017-06-05T13:52:30.797Z,23.00
2017-06-05T13:54:56.874Z,23.00
2017-06-05T13:57:22.974Z,23.00
2017-06-05T13:59:49.076Z,23.00
2017-06-05T14:02:15.134Z,23.00
2017-06-05T14:04:41.218Z,23.00
2017-06-05T14:07:07.299Z,23.00
2017-06-05T14:09:33.391Z,23.00
2017-06-05T14:11:59.470Z,23.00
2017-06-05T14:14:25.550Z,23.00
2017-06-05T14:16:51.636Z,22.90
2017-06-05T14:19:17.702Z,22.90
2017-06-05T14:21:43.798Z,22.90
2017-06-05T14:24:09.878Z,22.90
2017-06-05T14:26:35.957Z,22.90
2017-06-05T14:29:02.051Z,22.90
2017-06-05T14:31:28.130Z,22.90
2017-06-05T14:33:54.193Z,22.90
2017-06-05T14:36:20.285Z,22.90
2017-06-05T14:38:46.376Z,22.90
2017-06-05T14:41:13.233Z,22.90
2017-06-05T14:43:39.315Z,22.80
2017-06-05T14:46:05.379Z,22.90
2017-06-05T14:48:31.456Z,22.90
2017-06-05T14:50:57.545Z,22.90
2017-06-05T14:53:23.642Z,22.90
2017-06-05T14:55:49.741Z,22.90
2017-06-05T14:58:15.818Z,22.80
2017-06-05T15:00:41.889Z,22.80
2017-06-05T15:03:07.973Z,22.80
2017-06-05T15:05:34.050Z,22.80
2017-06-05T15:08:00.121Z,22.80
2017-06-05T15:10:26.190Z,22.80
2017-06-05T15:12:52.294Z,22.80
2017-06-05T15:15:18.375Z,22.80
2017-06-05T15:17:44.438Z,22.80
2017-06-05T15:20:10.539Z,22.80
2017-06-05T15:22:36.726Z,22.80
2017-06-05T15:25:02.788Z,22.80
2017-06-05T15:27:28.882Z,22.70
2017-06-05T15:29:54.964Z,22.80
2017-06-05T15:32:21.055Z,22.80
2017-06-05T15:34:47.137Z,22.70
2017-06-05T15:37:13.218Z,22.70
2017-06-05T15:39:39.271Z,22.70
2017-06-05T15:42:05.327Z,22.70
2017-06-05T15:44:32.134Z,22.70
2017-06-05T15:46:58.223Z,22.70
2017-06-05T15:49:24.278Z,22.70
2017-06-05T15:51:50.342Z,22.70
2017-06-05T15:54:16.417Z,22.70
2017-06-05T15:56:42.487Z,22.70
2017-06-05T15:59:08.558Z,22.70
2017-06-05T16:01:34.626Z,22.60
2017-06-05T16:04:00.723Z,22.60
2017-06-05T16:06:26.786Z,22.70
2017-06-05T16:08:52.862Z,22.60
2017-06-05T16:11:18.946Z,22.70
2017-06-05T16:13:45.025Z,22.70
2017-06-05T16:16:11.096Z,22.70
2017-06-05T16:18:37.172Z,22.70
2017-06-05T16:21:03.262Z,22.60
2017-06-05T16:23:29.343Z,22.60
2017-06-05T16:25:55.426Z,22.60
2017-06-05T16:28:21.527Z,22.70
2017-06-05T16:30:47.590Z,22.60
2017-06-05T16:33:13.666Z,22.70
2017-06-05T16:35:39.726Z,22.60
2017-06-05T16:38:05.800Z,22.60
2017-06-05T16:40:31.882Z,22.60
2017-06-05T16:42:57.969Z,22.60
2017-06-05T16:45:24.035Z,22.60
2017-06-05T16:47:50.120Z,22.60
2017-06-05T16:50:16.315Z,22.60
2017-06-05T16:52:42.378Z,22.60
2017-06-05T16:55:08.447Z,22.60
2017-06-05T16:57:34.530Z,22.60
2017-06-05T17:00:00.588Z,22.60
2017-06-05T17:02:26.662Z,22.60
2017-06-05T17:04:52.714Z,22.60
2017-06-05T17:07:18.791Z,22.60
2017-06-05T17:09:44.881Z,22.60
2017-06-05T17:12:10.974Z,22.60
2017-06-05T17:14:37.047Z,22.60
2017-06-05T17:17:03.119Z,22.60
2017-06-05T17:19:29.185Z,22.60
2017-06-05T17:21:55.250Z,22.60
2017-06-05T17:24:21.330Z,22.60
2017-06-05T17:26:47.409Z,22.60
2017-06-05T17:29:13.486Z,22.60
2017-06-05T17:31:39.563Z,22.60
2017-06-05T17:34:05.639Z,22.60
2017-06-05T17:36:31.714Z,22.60
2017-06-05T17:38:57.808Z,22.60
2017-06-05T17:41:23.938Z,22.60
2017-06-05T17:43:50.051Z,22.60
2017-06-05T17:46:16.138Z,22.60
2017-06-05T17:48:42.209Z,22.60
2017-06-05T17:51:08.289Z,22.60
2017-06-05T17:53:34.358Z,22.60
2017-06-05T17:56:00.430Z,22.60
2017-06-05T17:58:26.497Z,22.60
2017-06-05T18:00:52.622Z,22.60
2017-06-05T18:03:18.682Z,22.60
2017-06-05T18:05:45.504Z,22.60
2017-06-05T18:08:11.578Z,22.60
2017-06-05T18:10:37.668Z,22.60
2017-06-05T18:13:03.730Z,22.60
2017-06-05T18:15:29.803Z,22.60
2017-06-05T18:17:55.899Z,22.50
2017-06-05T18:20:21.970Z,22.50
2017-06-05T18:22:48.052Z,22.50
2017-06-05T18:25:14.111Z,22.50
2017-06-05T18:27:40.181Z,22.50
2017-06-05T18:30:06.241Z,22.60
2017-06-05T18:32:32.302Z,22.60
2017-06-05T18:34:58.362Z,22.60
2017-06-05T18:37:24.428Z,22.60
2017-06-05T18:39:50.544Z,22.50
2017-06-05T18:42:16.622Z,22.60
2017-06-05T18:44:42.696Z,22.60
2017-06-05T18:47:08.803Z,22.60
2017-06-05T18:49:34.860Z,22.50
2017-06-05T18:52:00.930Z,22.50
2017-06-05T18:54:26.998Z,22.50
2017-06-05T18:56:53.104Z,22.50
2017-06-05T18:59:19.178Z,22.50
2017-06-05T19:01:45.243Z,22.60
2017-06-05T19:04:11.311Z,22.60
2017-06-05T19:06:37.393Z,22.50
2017-06-05T19:09:03.515Z,22.50
2017-06-05T19:11:30.322Z,22.50
2017-06-05T19:13:56.414Z,22.50
2017-06-05T19:16:22.482Z,22.50
2017-06-05T19:18:48.565Z,22.50
2017-06-05T19:21:14.643Z,22.60
2017-06-05T19:23:40.715Z,22.60
2017-06-05T19:26:06.806Z,22.60
2017-06-05T19:28:33.623Z,22.50
2017-06-05T19:30:59.714Z,22.50
2017-06-05T19:33:25.779Z,22.50
2017-06-05T19:35:51.869Z,22.50
2017-06-05T19:38:17.960Z,22.50
2017-06-05T19:40:44.039Z,22.50
2017-06-05T19:43:10.118Z,22.50
2017-06-05T19:45:36.952Z,22.60
2017-06-05T19:48:03.038Z,22.50
2017-06-05T19:50:29.144Z,22.50
2017-06-05T19:52:55.218Z,22.50
2017-06-05T19:55:21.302Z,22.50
2017-06-05T19:57:47.408Z,22.50
2017-06-05T20:00:13.503Z,22.50
2017-06-05T20:02:39.588Z,22.50
2017-06-05T20:05:05.686Z,22.50
2017-06-05T20:07:31.787Z,22.50
2017-06-05T20:09:57.859Z,22.50
2017-06-05T20:12:23.939Z,22.50
2017-06-05T20:14:50.002Z,22.50
2017-06-05T20:17:16.075Z,22.50
2017-06-05T20:19:42.140Z,22.50
2017-06-05T20:22:08.203Z,22.50
2017-06-05T20:24:34.280Z,22.50
2017-06-05T20:27:00.350Z,22.50
2017-06-05T20:29:26.423Z,22.50
2017-06-05T20:31:52.515Z,22.50
2017-06-05T20:34:18.590Z,22.50
2017-06-05T20:36:44.650Z,22.50
2017-06-05T20:39:10.723Z,22.40
2017-06-05T20:41:36.799Z,22.40
2017-06-05T20:44:02.875Z,22.50
2017-06-05T20:46:28.994Z,22.50
2017-06-05T20:48:55.078Z,22.50
2017-06-05T20:51:21.149Z,22.40
2017-06-05T20:53:47.258Z,22.40
2017-06-05T20:56:13.323Z,22.40
2017-06-05T20:58:39.381Z,22.40
2017-06-05T21:01:05.470Z,22.40
2017-06-05T21:03:31.535Z,22.40
2017-06-05T21:05:57.599Z,22.40
2017-06-05T21:08:23.690Z,22.40
2017-06-05T21:10:49.773Z,22.40
2017-06-05T21:13:15.854Z,22.40
2017-06-05T21:15:41.926Z,22.40
2017-06-05T21:18:07.998Z,22.40
2017-06-05T21:20:34.087Z,22.40
2017-06-05T21:23:00.191Z,22.40
2017-06-05T21:25:26.285Z,22.40
2017-06-05T21:27:52.374Z,22.40
2017-06-05T21:30:18.473Z,22.40
2017-06-05T21:32:44.538Z,22.40
2017-06-05T21:35:10.643Z,22.40
2017-06-05T21:37:36.710Z,22.40
2017-06-05T21:40:32.715Z,22.40
2017-06-05T21:42:58.806Z,22.40
2017-06-05T21:45:24.915Z,22.40
2017-06-05T21:47:50.971Z,22.40
2017-06-05T21:50:17.105Z,22.30
2017-06-05T21:52:43.175Z,22.30
2017-06-05T21:55:09.250Z,22.30
2017-06-05T21:57:35.318Z,22.40
2017-06-05T22:00:01.403Z,22.30
2017-06-05T22:02:27.554Z,22.30
2017-06-05T22:04:53.626Z,22.30
2017-06-05T22:07:19.682Z,22.30
2017-06-05T22:09:45.750Z,22.30
2017-06-05T22:12:11.818Z,22.30
2017-06-05T22:14:37.903Z,22.30
2017-06-05T22:17:03.975Z,22.30
2017-06-05T22:19:30.050Z,22.30
2017-06-05T22:21:56.848Z,22.30
2017-06-05T22:24:22.934Z,22.30
2017-06-05T22:26:49.003Z,22.30
2017-06-05T22:29:15.062Z,22.30
2017-06-05T22:31:41.166Z,22.30
2017-06-05T22:34:07.241Z,22.30
2017-06-05T22:36:33.313Z,22.30
2017-06-05T22:38:59.395Z,22.30
2017-06-05T22:41:25.490Z,22.30
2017-06-05T22:43:52.290Z,22.30
2017-06-05T22:46:18.342Z,22.20
2017-06-05T22:48:44.442Z,22.30
2017-06-05T22:51:10.509Z,22.20
2017-06-05T22:53:36.643Z,22.30
2017-06-05T22:56:03.463Z,22.30
2017-06-05T22:58:29.547Z,22.20
2017-06-05T23:00:55.618Z,22.30
2017-06-05T23:03:21.692Z,22.30
2017-06-05T23:05:47.765Z,22.20
2017-06-05T23:08:13.835Z,22.20
2017-06-05T23:10:39.910Z,22.20
2017-06-05T23:13:05.979Z,22.10
2017-06-05T23:15:32.062Z,22.20
2017-06-05T23:17:58.151Z,22.20
2017-06-05T23:20:24.259Z,22.20
2017-06-05T23:22:51.074Z,22.20
2017-06-05T23:25:17.158Z,22.20
2017-06-05T23:27:43.217Z,22.20
2017-06-05T23:30:09.283Z,22.20
2017-06-05T23:32:35.362Z,22.20
2017-06-05T23:35:01.418Z,22.20
2017-06-05T23:37:27.482Z,22.20
2017-06-05T23:39:53.540Z,22.20
2017-06-05T23:42:19.600Z,22.20
2017-06-05T23:44:45.654Z,22.20
2017-06-05T23:47:11.728Z,22.20
2017-06-05T23:49:37.830Z,22.20
2017-06-05T23:52:03.878Z,22.20
2017-06-05T23:54:29.944Z,22.20
2017-06-05T23:56:56.745Z,22.10
2017-06-05T23:59:22.801Z,22.10
